sensor_id;sensor_type;location;lat;lon;timestamp;temperature;humidity
32293;DHT22;43233;48.608;8.838;2023-10-08T00:00:45;13.90;36.60
32293;DHT22;43233;48.608;8.838;2023-10-08T00:03:19;13.90;37.40
32293;DHT22;43233;48.608;8.838;2023-10-08T00:05:52;13.80;37.90
32293;DHT22;43233;48.608;8.838;2023-10-08T00:08:18;13.80;38.20
32293;DHT22;43233;48.608;8.838;2023-10-08T00:10:44;13.80;39.40
32293;DHT22;43233;48.608;8.838;2023-10-08T00:13:11;13.70;39.00
32293;DHT22;43233;48.608;8.838;2023-10-08T00:15:39;13.70;39.30
32293;DHT22;43233;48.608;8.838;2023-10-08T00:18:15;13.60;39.50
32293;DHT22;43233;48.608;8.838;2023-10-08T00:20:41;13.60;39.20
32293;DHT22;43233;48.608;8.838;2023-10-08T00:23:21;13.60;38.60
32293;DHT22;43233;48.608;8.838;2023-10-08T00:25:47;13.70;38.00
32293;DHT22;43233;48.608;8.838;2023-10-08T00:28:15;13.70;37.20
32293;DHT22;43233;48.608;8.838;2023-10-08T00:30:43;13.80;36.90
32293;DHT22;43233;48.608;8.838;2023-10-08T00:33:09;13.80;36.60
32293;DHT22;43233;48.608;8.838;2023-10-08T00:35:38;13.80;36.50
32293;DHT22;43233;48.608;8.838;2023-10-08T00:38:04;13.80;36.40
32293;DHT22;43233;48.608;8.838;2023-10-08T00:40:39;13.80;36.60
32293;DHT22;43233;48.608;8.838;2023-10-08T00:43:05;13.80;36.30
32293;DHT22;43233;48.608;8.838;2023-10-08T00:45:38;13.80;36.30
32293;DHT22;43233;48.608;8.838;2023-10-08T00:48:12;13.80;36.30
32293;DHT22;43233;48.608;8.838;2023-10-08T00:50:43;13.80;36.20
32293;DHT22;43233;48.608;8.838;2023-10-08T00:53:12;13.80;36.00
32293;DHT22;43233;48.608;8.838;2023-10-08T00:55:48;13.80;36.00
32293;DHT22;43233;48.608;8.838;2023-10-08T00:58:25;13.90;36.00
32293;DHT22;43233;48.608;8.838;2023-10-08T01:00:53;13.90;36.20
32293;DHT22;43233;48.608;8.838;2023-10-08T01:03:25;13.90;36.20
32293;DHT22;43233;48.608;8.838;2023-10-08T01:05:55;13.90;36.10
32293;DHT22;43233;48.608;8.838;2023-10-08T01:08:22;13.90;35.80
32293;DHT22;43233;48.608;8.838;2023-10-08T01:11:23;13.90;35.50
32293;DHT22;43233;48.608;8.838;2023-10-08T01:14:08;13.90;34.90
32293;DHT22;43233;48.608;8.838;2023-10-08T01:16:34;14.00;34.60
32293;DHT22;43233;48.608;8.838;2023-10-08T01:19:00;14.00;34.40
32293;DHT22;43233;48.608;8.838;2023-10-08T01:21:29;14.00;34.20
32293;DHT22;43233;48.608;8.838;2023-10-08T01:24:05;14.00;33.80
32293;DHT22;43233;48.608;8.838;2023-10-08T01:26:35;14.10;33.80
32293;DHT22;43233;48.608;8.838;2023-10-08T01:29:08;14.10;33.70
32293;DHT22;43233;48.608;8.838;2023-10-08T01:31:35;14.10;33.60
32293;DHT22;43233;48.608;8.838;2023-10-08T01:34:02;14.10;33.40
32293;DHT22;43233;48.608;8.838;2023-10-08T01:36:30;14.20;33.30
32293;DHT22;43233;48.608;8.838;2023-10-08T01:38:57;14.20;33.40
32293;DHT22;43233;48.608;8.838;2023-10-08T01:41:23;14.20;33.80
32293;DHT22;43233;48.608;8.838;2023-10-08T01:43:56;14.10;34.10
32293;DHT22;43233;48.608;8.838;2023-10-08T01:46:24;14.10;34.50
32293;DHT22;43233;48.608;8.838;2023-10-08T01:48:52;14.00;34.70
32293;DHT22;43233;48.608;8.838;2023-10-08T01:51:30;13.90;34.90
32293;DHT22;43233;48.608;8.838;2023-10-08T01:54:03;13.90;35.20
32293;DHT22;43233;48.608;8.838;2023-10-08T01:56:41;13.90;35.50
32293;DHT22;43233;48.608;8.838;2023-10-08T01:59:11;13.80;35.30
32293;DHT22;43233;48.608;8.838;2023-10-08T02:01:39;13.70;35.40
32293;DHT22;43233;48.608;8.838;2023-10-08T02:04:06;13.60;35.30
32293;DHT22;43233;48.608;8.838;2023-10-08T02:06:37;13.50;35.60
32293;DHT22;43233;48.608;8.838;2023-10-08T02:09:05;13.50;35.80
32293;DHT22;43233;48.608;8.838;2023-10-08T02:11:46;13.40;35.90
32293;DHT22;43233;48.608;8.838;2023-10-08T02:14:16;13.40;35.90
32293;DHT22;43233;48.608;8.838;2023-10-08T02:16:51;13.30;36.00
32293;DHT22;43233;48.608;8.838;2023-10-08T02:19:24;13.20;36.20
32293;DHT22;43233;48.608;8.838;2023-10-08T02:21:53;13.20;36.70
32293;DHT22;43233;48.608;8.838;2023-10-08T02:24:20;13.10;37.20
32293;DHT22;43233;48.608;8.838;2023-10-08T02:26:47;13.10;37.00
32293;DHT22;43233;48.608;8.838;2023-10-08T02:29:13;13.00;37.50
32293;DHT22;43233;48.608;8.838;2023-10-08T02:31:39;13.00;37.30
32293;DHT22;43233;48.608;8.838;2023-10-08T02:34:06;12.90;37.30
32293;DHT22;43233;48.608;8.838;2023-10-08T02:36:34;12.80;37.40
32293;DHT22;43233;48.608;8.838;2023-10-08T02:39:03;12.80;37.70
32293;DHT22;43233;48.608;8.838;2023-10-08T02:41:32;12.70;38.00
32293;DHT22;43233;48.608;8.838;2023-10-08T02:43:58;12.70;38.00
32293;DHT22;43233;48.608;8.838;2023-10-08T02:46:24;12.70;38.10
32293;DHT22;43233;48.608;8.838;2023-10-08T02:48:52;12.60;38.30
32293;DHT22;43233;48.608;8.838;2023-10-08T02:51:18;12.60;38.20
32293;DHT22;43233;48.608;8.838;2023-10-08T02:53:46;12.60;38.40
32293;DHT22;43233;48.608;8.838;2023-10-08T02:56:12;12.60;38.60
32293;DHT22;43233;48.608;8.838;2023-10-08T02:58:41;12.50;38.70
32293;DHT22;43233;48.608;8.838;2023-10-08T03:01:09;12.50;39.00
32293;DHT22;43233;48.608;8.838;2023-10-08T03:03:41;12.40;39.10
32293;DHT22;43233;48.608;8.838;2023-10-08T03:06:08;12.40;39.20
32293;DHT22;43233;48.608;8.838;2023-10-08T03:08:40;12.40;39.20
32293;DHT22;43233;48.608;8.838;2023-10-08T03:11:09;12.40;39.30
32293;DHT22;43233;48.608;8.838;2023-10-08T03:13:46;12.30;39.20
32293;DHT22;43233;48.608;8.838;2023-10-08T03:16:17;12.30;39.20
32293;DHT22;43233;48.608;8.838;2023-10-08T03:18:47;12.30;39.10
32293;DHT22;43233;48.608;8.838;2023-10-08T03:21:15;12.30;39.30
32293;DHT22;43233;48.608;8.838;2023-10-08T03:24:07;12.30;39.70
32293;DHT22;43233;48.608;8.838;2023-10-08T03:26:56;12.30;38.90
32293;DHT22;43233;48.608;8.838;2023-10-08T03:29:35;12.30;39.00
32293;DHT22;43233;48.608;8.838;2023-10-08T03:32:11;12.30;38.70
32293;DHT22;43233;48.608;8.838;2023-10-08T03:34:47;12.30;38.60
32293;DHT22;43233;48.608;8.838;2023-10-08T03:37:14;12.40;38.50
32293;DHT22;43233;48.608;8.838;2023-10-08T03:39:49;12.40;38.60
32293;DHT22;43233;48.608;8.838;2023-10-08T03:42:26;12.40;39.10
32293;DHT22;43233;48.608;8.838;2023-10-08T03:44:55;12.40;39.40
32293;DHT22;43233;48.608;8.838;2023-10-08T03:47:22;12.40;39.60
32293;DHT22;43233;48.608;8.838;2023-10-08T03:49:52;12.40;40.00
32293;DHT22;43233;48.608;8.838;2023-10-08T03:52:19;12.30;40.30
32293;DHT22;43233;48.608;8.838;2023-10-08T03:54:48;12.30;40.50
32293;DHT22;43233;48.608;8.838;2023-10-08T03:57:25;12.30;41.00
32293;DHT22;43233;48.608;8.838;2023-10-08T03:59:51;12.30;41.30
32293;DHT22;43233;48.608;8.838;2023-10-08T04:02:20;12.30;41.50
32293;DHT22;43233;48.608;8.838;2023-10-08T04:04:59;12.30;41.80
32293;DHT22;43233;48.608;8.838;2023-10-08T04:07:26;12.20;42.00
32293;DHT22;43233;48.608;8.838;2023-10-08T04:10:14;12.20;42.20
32293;DHT22;43233;48.608;8.838;2023-10-08T04:12:59;12.10;42.20
32293;DHT22;43233;48.608;8.838;2023-10-08T04:15:24;12.10;42.30
32293;DHT22;43233;48.608;8.838;2023-10-08T04:17:50;12.00;42.30
32293;DHT22;43233;48.608;8.838;2023-10-08T04:20:16;12.00;42.50
32293;DHT22;43233;48.608;8.838;2023-10-08T04:23:02;12.00;42.60
32293;DHT22;43233;48.608;8.838;2023-10-08T04:25:30;11.90;43.10
32293;DHT22;43233;48.608;8.838;2023-10-08T04:27:57;11.90;43.50
32293;DHT22;43233;48.608;8.838;2023-10-08T04:30:35;11.80;43.70
32293;DHT22;43233;48.608;8.838;2023-10-08T04:33:05;11.80;44.10
32293;DHT22;43233;48.608;8.838;2023-10-08T04:35:39;11.70;44.50
32293;DHT22;43233;48.608;8.838;2023-10-08T04:38:15;11.70;44.80
32293;DHT22;43233;48.608;8.838;2023-10-08T04:40:44;11.60;44.80
32293;DHT22;43233;48.608;8.838;2023-10-08T04:43:21;11.60;45.00
32293;DHT22;43233;48.608;8.838;2023-10-08T04:46:02;11.70;45.30
32293;DHT22;43233;48.608;8.838;2023-10-08T04:48:44;11.60;45.10
32293;DHT22;43233;48.608;8.838;2023-10-08T04:51:09;11.70;45.30
32293;DHT22;43233;48.608;8.838;2023-10-08T04:53:38;11.60;45.50
32293;DHT22;43233;48.608;8.838;2023-10-08T04:56:10;11.60;45.70
32293;DHT22;43233;48.608;8.838;2023-10-08T04:58:39;11.60;45.70
32293;DHT22;43233;48.608;8.838;2023-10-08T05:01:09;11.60;45.60
32293;DHT22;43233;48.608;8.838;2023-10-08T05:03:55;11.60;45.50
32293;DHT22;43233;48.608;8.838;2023-10-08T05:06:31;11.70;45.30
32293;DHT22;43233;48.608;8.838;2023-10-08T05:09:04;11.70;45.10
32293;DHT22;43233;48.608;8.838;2023-10-08T05:11:49;11.70;44.90
32293;DHT22;43233;48.608;8.838;2023-10-08T05:14:24;11.80;44.70
32293;DHT22;43233;48.608;8.838;2023-10-08T05:16:56;11.80;44.60
32293;DHT22;43233;48.608;8.838;2023-10-08T05:19:41;11.90;45.00
32293;DHT22;43233;48.608;8.838;2023-10-08T05:22:11;11.80;45.10
32293;DHT22;43233;48.608;8.838;2023-10-08T05:25:03;11.80;45.40
32293;DHT22;43233;48.608;8.838;2023-10-08T05:27:43;11.80;45.60
32293;DHT22;43233;48.608;8.838;2023-10-08T05:32:42;11.80;46.30
32293;DHT22;43233;48.608;8.838;2023-10-08T05:35:27;11.80;46.20
32293;DHT22;43233;48.608;8.838;2023-10-08T05:38:04;11.80;46.10
32293;DHT22;43233;48.608;8.838;2023-10-08T05:40:49;11.90;46.00
32293;DHT22;43233;48.608;8.838;2023-10-08T05:43:28;11.90;45.90
32293;DHT22;43233;48.608;8.838;2023-10-08T05:46:10;11.90;46.40
32293;DHT22;43233;48.608;8.838;2023-10-08T05:48:49;11.80;46.10
32293;DHT22;43233;48.608;8.838;2023-10-08T05:51:35;11.80;45.90
32293;DHT22;43233;48.608;8.838;2023-10-08T05:54:24;11.90;45.90
32293;DHT22;43233;48.608;8.838;2023-10-08T05:59:44;11.90;46.20
32293;DHT22;43233;48.608;8.838;2023-10-08T06:04:53;11.90;46.90
32293;DHT22;43233;48.608;8.838;2023-10-08T06:07:46;11.90;47.00
32293;DHT22;43233;48.608;8.838;2023-10-08T06:10:31;11.90;47.30
32293;DHT22;43233;48.608;8.838;2023-10-08T06:15:37;11.80;47.80
32293;DHT22;43233;48.608;8.838;2023-10-08T06:18:28;11.90;47.90
32293;DHT22;43233;48.608;8.838;2023-10-08T06:21:02;11.90;48.00
32293;DHT22;43233;48.608;8.838;2023-10-08T06:23:35;11.90;48.30
32293;DHT22;43233;48.608;8.838;2023-10-08T06:26:01;12.00;48.10
32293;DHT22;43233;48.608;8.838;2023-10-08T06:28:32;12.00;47.60
32293;DHT22;43233;48.608;8.838;2023-10-08T06:31:03;12.00;46.70
32293;DHT22;43233;48.608;8.838;2023-10-08T06:33:32;12.10;45.30
32293;DHT22;43233;48.608;8.838;2023-10-08T06:35:59;12.30;44.70
32293;DHT22;43233;48.608;8.838;2023-10-08T06:38:34;12.40;43.80
32293;DHT22;43233;48.608;8.838;2023-10-08T06:41:01;12.50;43.00
32293;DHT22;43233;48.608;8.838;2023-10-08T06:43:34;12.70;42.70
32293;DHT22;43233;48.608;8.838;2023-10-08T06:46:02;12.80;42.70
32293;DHT22;43233;48.608;8.838;2023-10-08T06:48:29;12.90;42.50
32293;DHT22;43233;48.608;8.838;2023-10-08T06:50:55;13.00;42.40
32293;DHT22;43233;48.608;8.838;2023-10-08T06:53:33;13.10;42.30
32293;DHT22;43233;48.608;8.838;2023-10-08T06:56:00;13.20;41.90
32293;DHT22;43233;48.608;8.838;2023-10-08T06:58:30;13.40;41.60
32293;DHT22;43233;48.608;8.838;2023-10-08T07:00:57;13.60;41.40
32293;DHT22;43233;48.608;8.838;2023-10-08T07:03:24;13.70;40.70
32293;DHT22;43233;48.608;8.838;2023-10-08T07:05:51;13.90;39.90
32293;DHT22;43233;48.608;8.838;2023-10-08T07:08:24;14.10;39.90
32293;DHT22;43233;48.608;8.838;2023-10-08T07:10:51;14.20;39.40
32293;DHT22;43233;48.608;8.838;2023-10-08T07:13:17;14.30;39.20
32293;DHT22;43233;48.608;8.838;2023-10-08T07:15:46;14.40;39.30
32293;DHT22;43233;48.608;8.838;2023-10-08T07:18:12;14.50;38.90
32293;DHT22;43233;48.608;8.838;2023-10-08T07:20:47;14.50;39.10
32293;DHT22;43233;48.608;8.838;2023-10-08T07:23:25;14.50;39.70
32293;DHT22;43233;48.608;8.838;2023-10-08T07:26:02;14.50;40.00
32293;DHT22;43233;48.608;8.838;2023-10-08T07:28:38;14.60;39.20
32293;DHT22;43233;48.608;8.838;2023-10-08T07:33:45;14.70;38.90
32293;DHT22;43233;48.608;8.838;2023-10-08T07:36:11;14.80;39.00
32293;DHT22;43233;48.608;8.838;2023-10-08T07:38:38;14.80;39.20
32293;DHT22;43233;48.608;8.838;2023-10-08T07:41:10;15.00;39.50
32293;DHT22;43233;48.608;8.838;2023-10-08T07:43:45;15.20;39.10
32293;DHT22;43233;48.608;8.838;2023-10-08T07:46:23;15.40;39.10
32293;DHT22;43233;48.608;8.838;2023-10-08T07:48:52;15.70;38.80
32293;DHT22;43233;48.608;8.838;2023-10-08T07:51:17;15.90;38.60
32293;DHT22;43233;48.608;8.838;2023-10-08T07:53:50;16.10;38.30
32293;DHT22;43233;48.608;8.838;2023-10-08T07:56:23;16.30;37.80
32293;DHT22;43233;48.608;8.838;2023-10-08T07:58:49;16.50;36.90
32293;DHT22;43233;48.608;8.838;2023-10-08T08:01:15;16.60;37.10
32293;DHT22;43233;48.608;8.838;2023-10-08T08:03:41;16.60;37.20
32293;DHT22;43233;48.608;8.838;2023-10-08T08:06:08;16.70;37.40
32293;DHT22;43233;48.608;8.838;2023-10-08T08:08:35;16.80;37.10
32293;DHT22;43233;48.608;8.838;2023-10-08T08:11:08;17.00;36.70
32293;DHT22;43233;48.608;8.838;2023-10-08T08:13:44;17.00;36.10
32293;DHT22;43233;48.608;8.838;2023-10-08T08:16:14;17.10;36.20
32293;DHT22;43233;48.608;8.838;2023-10-08T08:18:53;17.20;36.50
32293;DHT22;43233;48.608;8.838;2023-10-08T08:21:22;17.50;35.60
32293;DHT22;43233;48.608;8.838;2023-10-08T08:23:49;17.60;34.90
32293;DHT22;43233;48.608;8.838;2023-10-08T08:26:16;17.80;34.70
32293;DHT22;43233;48.608;8.838;2023-10-08T08:29:02;17.80;35.00
32293;DHT22;43233;48.608;8.838;2023-10-08T08:31:28;17.80;34.90
32293;DHT22;43233;48.608;8.838;2023-10-08T08:33:58;18.00;35.20
32293;DHT22;43233;48.608;8.838;2023-10-08T08:36:29;18.40;35.10
32293;DHT22;43233;48.608;8.838;2023-10-08T08:38:55;19.20;33.90
32293;DHT22;43233;48.608;8.838;2023-10-08T08:41:21;19.90;31.50
32293;DHT22;43233;48.608;8.838;2023-10-08T08:43:52;20.50;29.60
32293;DHT22;43233;48.608;8.838;2023-10-08T08:46:36;21.00;29.50
32293;DHT22;43233;48.608;8.838;2023-10-08T08:49:04;21.50;29.50
32293;DHT22;43233;48.608;8.838;2023-10-08T08:51:30;22.10;28.70
32293;DHT22;43233;48.608;8.838;2023-10-08T08:53:56;22.60;27.40
32293;DHT22;43233;48.608;8.838;2023-10-08T08:56:26;23.20;26.50
32293;DHT22;43233;48.608;8.838;2023-10-08T08:58:55;23.80;26.00
32293;DHT22;43233;48.608;8.838;2023-10-08T09:01:23;24.50;25.50
32293;DHT22;43233;48.608;8.838;2023-10-08T09:03:49;25.20;24.20
32293;DHT22;43233;48.608;8.838;2023-10-08T09:06:15;25.90;22.80
32293;DHT22;43233;48.608;8.838;2023-10-08T09:08:41;26.40;22.00
32293;DHT22;43233;48.608;8.838;2023-10-08T09:11:08;26.90;21.50
32293;DHT22;43233;48.608;8.838;2023-10-08T09:13:34;27.40;21.20
32293;DHT22;43233;48.608;8.838;2023-10-08T09:16:07;27.90;20.20
32293;DHT22;43233;48.608;8.838;2023-10-08T09:18:34;28.30;19.50
32293;DHT22;43233;48.608;8.838;2023-10-08T09:21:18;28.80;19.50
32293;DHT22;43233;48.608;8.838;2023-10-08T09:23:49;29.20;19.00
32293;DHT22;43233;48.608;8.838;2023-10-08T09:26:23;29.50;18.60
32293;DHT22;43233;48.608;8.838;2023-10-08T09:28:49;29.90;18.10
32293;DHT22;43233;48.608;8.838;2023-10-08T09:31:17;30.20;18.30
32293;DHT22;43233;48.608;8.838;2023-10-08T09:33:52;30.50;17.70
32293;DHT22;43233;48.608;8.838;2023-10-08T09:36:18;30.60;17.00
32293;DHT22;43233;48.608;8.838;2023-10-08T09:38:46;30.80;17.40
32293;DHT22;43233;48.608;8.838;2023-10-08T09:41:15;31.00;17.00
32293;DHT22;43233;48.608;8.838;2023-10-08T09:43:41;31.20;17.00
32293;DHT22;43233;48.608;8.838;2023-10-08T09:46:20;31.60;16.90
32293;DHT22;43233;48.608;8.838;2023-10-08T09:48:50;32.10;16.20
32293;DHT22;43233;48.608;8.838;2023-10-08T09:51:18;32.60;15.30
32293;DHT22;43233;48.608;8.838;2023-10-08T09:56:31;32.50;15.30
32293;DHT22;43233;48.608;8.838;2023-10-08T09:59:00;31.60;16.10
32293;DHT22;43233;48.608;8.838;2023-10-08T10:01:26;30.70;16.90
32293;DHT22;43233;48.608;8.838;2023-10-08T10:03:52;30.00;17.80
32293;DHT22;43233;48.608;8.838;2023-10-08T10:06:18;29.30;18.70
32293;DHT22;43233;48.608;8.838;2023-10-08T10:08:45;28.60;19.10
32293;DHT22;43233;48.608;8.838;2023-10-08T10:11:12;28.10;20.00
32293;DHT22;43233;48.608;8.838;2023-10-08T10:13:43;27.60;20.20
32293;DHT22;43233;48.608;8.838;2023-10-08T10:16:21;27.40;21.10
32293;DHT22;43233;48.608;8.838;2023-10-08T10:18:49;27.60;21.60
32293;DHT22;43233;48.608;8.838;2023-10-08T10:23:48;28.90;19.70
32293;DHT22;43233;48.608;8.838;2023-10-08T10:26:30;29.20;19.30
32293;DHT22;43233;48.608;8.838;2023-10-08T10:31:43;29.70;19.20
32293;DHT22;43233;48.608;8.838;2023-10-08T10:34:17;30.10;18.40
32293;DHT22;43233;48.608;8.838;2023-10-08T10:36:47;30.50;18.10
32293;DHT22;43233;48.608;8.838;2023-10-08T10:39:23;31.20;17.80
32293;DHT22;43233;48.608;8.838;2023-10-08T10:42:01;31.90;16.30
32293;DHT22;43233;48.608;8.838;2023-10-08T10:44:30;32.50;16.30
32293;DHT22;43233;48.608;8.838;2023-10-08T10:46:57;33.40;15.80
32293;DHT22;43233;48.608;8.838;2023-10-08T10:49:48;34.80;14.60
32293;DHT22;43233;48.608;8.838;2023-10-08T10:52:17;36.30;13.40
32293;DHT22;43233;48.608;8.838;2023-10-08T10:57:26;37.70;11.20
32293;DHT22;43233;48.608;8.838;2023-10-08T11:00:04;37.60;11.70
32293;DHT22;43233;48.608;8.838;2023-10-08T11:02:53;37.60;11.40
32293;DHT22;43233;48.608;8.838;2023-10-08T11:05:26;38.20;11.20
32293;DHT22;43233;48.608;8.838;2023-10-08T11:07:58;38.50;10.60
32293;DHT22;43233;48.608;8.838;2023-10-08T11:10:37;38.20;10.80
32293;DHT22;43233;48.608;8.838;2023-10-08T11:13:12;37.70;10.50
32293;DHT22;43233;48.608;8.838;2023-10-08T11:15:45;37.30;10.80
32293;DHT22;43233;48.608;8.838;2023-10-08T11:18:16;36.90;9.60
32293;DHT22;43233;48.608;8.838;2023-10-08T11:20:46;36.50;9.60
32293;DHT22;43233;48.608;8.838;2023-10-08T11:23:33;36.60;9.10
32293;DHT22;43233;48.608;8.838;2023-10-08T11:26:00;37.50;9.00
32293;DHT22;43233;48.608;8.838;2023-10-08T11:28:33;38.50;7.50
32293;DHT22;43233;48.608;8.838;2023-10-08T11:31:06;39.50;7.80
32293;DHT22;43233;48.608;8.838;2023-10-08T11:33:40;39.80;7.00
32293;DHT22;43233;48.608;8.838;2023-10-08T11:36:08;39.60;7.20
32293;DHT22;43233;48.608;8.838;2023-10-08T11:38:46;39.30;7.30
32293;DHT22;43233;48.608;8.838;2023-10-08T11:41:19;38.70;7.20
32293;DHT22;43233;48.608;8.838;2023-10-08T11:43:54;38.10;7.80
32293;DHT22;43233;48.608;8.838;2023-10-08T11:46:32;37.50;8.10
32293;DHT22;43233;48.608;8.838;2023-10-08T11:49:06;37.20;8.40
32293;DHT22;43233;48.608;8.838;2023-10-08T11:51:36;37.30;8.60
32293;DHT22;43233;48.608;8.838;2023-10-08T11:54:02;37.60;8.10
32293;DHT22;43233;48.608;8.838;2023-10-08T11:56:32;37.70;7.80
32293;DHT22;43233;48.608;8.838;2023-10-08T11:59:01;37.90;7.70
32293;DHT22;43233;48.608;8.838;2023-10-08T12:01:27;38.00;8.10
32293;DHT22;43233;48.608;8.838;2023-10-08T12:03:53;38.30;7.90
32293;DHT22;43233;48.608;8.838;2023-10-08T12:06:25;38.80;8.50
32293;DHT22;43233;48.608;8.838;2023-10-08T12:08:55;39.40;9.70
32293;DHT22;43233;48.608;8.838;2023-10-08T12:11:24;39.80;8.60
32293;DHT22;43233;48.608;8.838;2023-10-08T12:13:57;39.60;9.50
32293;DHT22;43233;48.608;8.838;2023-10-08T12:16:24;39.50;9.10
32293;DHT22;43233;48.608;8.838;2023-10-08T12:18:55;39.20;9.60
32293;DHT22;43233;48.608;8.838;2023-10-08T12:21:25;38.80;9.50
32293;DHT22;43233;48.608;8.838;2023-10-08T12:23:51;38.40;9.40
32293;DHT22;43233;48.608;8.838;2023-10-08T12:26:18;37.50;9.70
32293;DHT22;43233;48.608;8.838;2023-10-08T12:28:47;36.40;10.00
32293;DHT22;43233;48.608;8.838;2023-10-08T12:31:20;35.40;10.90
32293;DHT22;43233;48.608;8.838;2023-10-08T12:33:48;34.60;11.90
32293;DHT22;43233;48.608;8.838;2023-10-08T12:36:14;34.50;12.80
32293;DHT22;43233;48.608;8.838;2023-10-08T12:38:43;34.70;11.90
32293;DHT22;43233;48.608;8.838;2023-10-08T12:41:12;34.90;11.50
32293;DHT22;43233;48.608;8.838;2023-10-08T12:43:42;34.80;11.30
32293;DHT22;43233;48.608;8.838;2023-10-08T12:46:11;34.70;11.70
32293;DHT22;43233;48.608;8.838;2023-10-08T12:48:45;34.60;11.80
32293;DHT22;43233;48.608;8.838;2023-10-08T12:51:14;34.50;12.20
32293;DHT22;43233;48.608;8.838;2023-10-08T12:53:40;34.30;12.20
32293;DHT22;43233;48.608;8.838;2023-10-08T12:56:10;34.20;12.80
32293;DHT22;43233;48.608;8.838;2023-10-08T12:58:42;34.30;12.30
32293;DHT22;43233;48.608;8.838;2023-10-08T13:01:17;34.40;12.80
32293;DHT22;43233;48.608;8.838;2023-10-08T13:03:44;34.40;12.30
32293;DHT22;43233;48.608;8.838;2023-10-08T13:06:22;34.40;12.40
32293;DHT22;43233;48.608;8.838;2023-10-08T13:08:51;34.40;12.60
32293;DHT22;43233;48.608;8.838;2023-10-08T13:11:24;34.40;12.70
32293;DHT22;43233;48.608;8.838;2023-10-08T13:13:51;34.30;12.60
32293;DHT22;43233;48.608;8.838;2023-10-08T13:16:21;34.30;11.80
32293;DHT22;43233;48.608;8.838;2023-10-08T13:18:50;34.20;11.60
32293;DHT22;43233;48.608;8.838;2023-10-08T13:21:18;34.30;11.90
32293;DHT22;43233;48.608;8.838;2023-10-08T13:23:51;34.20;12.40
32293;DHT22;43233;48.608;8.838;2023-10-08T13:26:16;34.00;12.70
32293;DHT22;43233;48.608;8.838;2023-10-08T13:28:43;33.70;12.80
32293;DHT22;43233;48.608;8.838;2023-10-08T13:31:09;33.50;12.70
32293;DHT22;43233;48.608;8.838;2023-10-08T13:33:43;33.40;12.70
32293;DHT22;43233;48.608;8.838;2023-10-08T13:36:14;33.30;12.40
32293;DHT22;43233;48.608;8.838;2023-10-08T13:38:40;33.10;12.40
32293;DHT22;43233;48.608;8.838;2023-10-08T13:41:07;32.90;11.80
32293;DHT22;43233;48.608;8.838;2023-10-08T13:43:49;32.70;12.30
32293;DHT22;43233;48.608;8.838;2023-10-08T13:46:18;32.40;12.80
32293;DHT22;43233;48.608;8.838;2023-10-08T13:48:45;32.20;11.80
32293;DHT22;43233;48.608;8.838;2023-10-08T13:51:19;32.20;12.00
32293;DHT22;43233;48.608;8.838;2023-10-08T13:53:53;32.00;12.80
32293;DHT22;43233;48.608;8.838;2023-10-08T13:56:22;31.90;13.20
32293;DHT22;43233;48.608;8.838;2023-10-08T13:58:52;31.90;13.50
32293;DHT22;43233;48.608;8.838;2023-10-08T14:01:28;31.80;13.30
32293;DHT22;43233;48.608;8.838;2023-10-08T14:03:54;31.60;12.90
32293;DHT22;43233;48.608;8.838;2023-10-08T14:06:29;31.50;12.80
32293;DHT22;43233;48.608;8.838;2023-10-08T14:08:55;31.50;13.00
32293;DHT22;43233;48.608;8.838;2023-10-08T14:11:21;31.30;13.30
32293;DHT22;43233;48.608;8.838;2023-10-08T14:13:52;31.30;13.40
32293;DHT22;43233;48.608;8.838;2023-10-08T14:16:19;31.20;13.40
32293;DHT22;43233;48.608;8.838;2023-10-08T14:18:52;31.10;13.50
32293;DHT22;43233;48.608;8.838;2023-10-08T14:21:20;31.10;13.30
32293;DHT22;43233;48.608;8.838;2023-10-08T14:23:50;31.00;13.30
32293;DHT22;43233;48.608;8.838;2023-10-08T14:26:18;31.00;13.00
32293;DHT22;43233;48.608;8.838;2023-10-08T14:28:47;31.00;13.40
32293;DHT22;43233;48.608;8.838;2023-10-08T14:31:22;30.90;13.30
32293;DHT22;43233;48.608;8.838;2023-10-08T14:33:50;30.80;14.00
32293;DHT22;43233;48.608;8.838;2023-10-08T14:36:31;30.70;16.20
32293;DHT22;43233;48.608;8.838;2023-10-08T14:39:15;30.60;18.30
32293;DHT22;43233;48.608;8.838;2023-10-08T14:41:59;30.50;16.60
32293;DHT22;43233;48.608;8.838;2023-10-08T14:44:44;30.50;16.30
32293;DHT22;43233;48.608;8.838;2023-10-08T14:47:09;30.30;17.20
32293;DHT22;43233;48.608;8.838;2023-10-08T14:49:35;30.20;18.90
32293;DHT22;43233;48.608;8.838;2023-10-08T14:52:01;30.20;18.30
32293;DHT22;43233;48.608;8.838;2023-10-08T14:54:29;30.10;18.60
32293;DHT22;43233;48.608;8.838;2023-10-08T14:56:56;29.90;18.70
32293;DHT22;43233;48.608;8.838;2023-10-08T14:59:23;29.90;15.70
32293;DHT22;43233;48.608;8.838;2023-10-08T15:01:49;29.90;14.50
32293;DHT22;43233;48.608;8.838;2023-10-08T15:04:15;29.80;14.50
32293;DHT22;43233;48.608;8.838;2023-10-08T15:06:42;29.80;14.40
32293;DHT22;43233;48.608;8.838;2023-10-08T15:09:11;29.80;14.60
32293;DHT22;43233;48.608;8.838;2023-10-08T15:11:52;29.70;14.70
32293;DHT22;43233;48.608;8.838;2023-10-08T15:14:19;29.60;14.90
32293;DHT22;43233;48.608;8.838;2023-10-08T15:16:46;29.60;15.10
32293;DHT22;43233;48.608;8.838;2023-10-08T15:19:22;29.40;15.00
32293;DHT22;43233;48.608;8.838;2023-10-08T15:21:49;29.40;15.30
32293;DHT22;43233;48.608;8.838;2023-10-08T15:24:19;29.20;15.50
32293;DHT22;43233;48.608;8.838;2023-10-08T15:26:47;29.10;15.50
32293;DHT22;43233;48.608;8.838;2023-10-08T15:29:14;29.00;15.60
32293;DHT22;43233;48.608;8.838;2023-10-08T15:31:40;28.90;15.50
32293;DHT22;43233;48.608;8.838;2023-10-08T15:34:06;28.80;15.80
32293;DHT22;43233;48.608;8.838;2023-10-08T15:36:32;28.70;15.70
32293;DHT22;43233;48.608;8.838;2023-10-08T15:38:58;28.60;16.00
32293;DHT22;43233;48.608;8.838;2023-10-08T15:41:24;28.50;16.10
32293;DHT22;43233;48.608;8.838;2023-10-08T15:43:51;28.40;16.20
32293;DHT22;43233;48.608;8.838;2023-10-08T15:46:18;28.30;16.40
32293;DHT22;43233;48.608;8.838;2023-10-08T15:48:43;28.20;16.40
32293;DHT22;43233;48.608;8.838;2023-10-08T15:51:09;28.10;16.70
32293;DHT22;43233;48.608;8.838;2023-10-08T15:53:35;27.90;16.40
32293;DHT22;43233;48.608;8.838;2023-10-08T15:56:01;27.80;16.50
32293;DHT22;43233;48.608;8.838;2023-10-08T15:58:27;27.60;16.80
32293;DHT22;43233;48.608;8.838;2023-10-08T16:00:52;27.50;16.90
32293;DHT22;43233;48.608;8.838;2023-10-08T16:03:21;27.30;17.40
32293;DHT22;43233;48.608;8.838;2023-10-08T16:05:47;27.10;17.20
32293;DHT22;43233;48.608;8.838;2023-10-08T16:08:17;27.00;17.40
32293;DHT22;43233;48.608;8.838;2023-10-08T16:10:42;26.80;17.20
32293;DHT22;43233;48.608;8.838;2023-10-08T16:13:08;26.60;17.50
32293;DHT22;43233;48.608;8.838;2023-10-08T16:15:35;26.50;17.80
32293;DHT22;43233;48.608;8.838;2023-10-08T16:18:01;26.40;18.00
32293;DHT22;43233;48.608;8.838;2023-10-08T16:20:29;26.20;18.40